createdAt,value
2022-11-12T00:04:51.283Z,6.60
2022-11-12T00:12:10.463Z,6.50
2022-11-12T00:19:30.064Z,6.50
2022-11-12T00:26:49.661Z,6.40
2022-11-12T00:34:09.435Z,6.40
2022-11-12T00:41:28.785Z,6.30
2022-11-12T00:48:48.434Z,6.10
2022-11-12T00:56:08.473Z,6.00
2022-11-12T01:03:28.575Z,5.90
2022-11-12T01:10:47.858Z,5.80
2022-11-12T01:18:07.445Z,5.70
2022-11-12T01:25:27.131Z,5.70
2022-11-12T01:32:46.627Z,5.50
2022-11-12T01:40:06.804Z,5.50
2022-11-12T01:47:31.197Z,5.40
2022-11-12T01:54:53.285Z,5.40
2022-11-12T02:02:12.674Z,5.40
2022-11-12T02:09:33.115Z,5.40
2022-11-12T02:16:53.157Z,5.40
2022-11-12T02:24:12.321Z,5.40
2022-11-12T02:31:31.993Z,5.40
2022-11-12T02:38:51.964Z,5.40
2022-11-12T02:46:11.393Z,5.40
2022-11-12T02:53:32.426Z,5.50
2022-11-12T03:00:51.666Z,5.50
2022-11-12T03:08:11.140Z,5.50
2022-11-12T03:15:31.457Z,5.50
2022-11-12T03:22:56.667Z,5.50
2022-11-12T03:30:16.135Z,5.50
2022-11-12T03:37:37.024Z,5.50
2022-11-12T03:44:56.275Z,5.50
2022-11-12T03:52:15.555Z,5.50
2022-11-12T03:59:35.173Z,5.50
2022-11-12T04:07:13.343Z,5.50
2022-11-12T04:14:32.891Z,5.50
2022-11-12T04:22:05.405Z,5.40
2022-11-12T04:29:44.209Z,5.40
2022-11-12T04:37:05.075Z,5.40
2022-11-12T04:44:43.103Z,5.30
2022-11-12T04:52:05.260Z,5.30
2022-11-12T04:59:24.263Z,5.20
2022-11-12T05:06:52.381Z,5.20
2022-11-12T05:14:11.275Z,5.10
2022-11-12T05:21:49.619Z,5.10
2022-11-12T05:29:09.320Z,5.10
2022-11-12T05:36:28.894Z,5.10
2022-11-12T05:43:48.504Z,5.00
2022-11-12T05:51:15.222Z,5.00
2022-11-12T05:58:36.152Z,4.90
2022-11-12T06:05:55.771Z,4.90
2022-11-12T06:13:15.581Z,4.90
2022-11-12T06:20:35.289Z,4.80
2022-11-12T06:27:54.782Z,4.80
2022-11-12T06:35:14.284Z,4.80
2022-11-12T06:42:34.125Z,4.70
2022-11-12T06:49:53.873Z,4.70
2022-11-12T06:57:13.106Z,4.70
2022-11-12T07:04:32.822Z,4.70
2022-11-12T07:11:52.070Z,4.70
2022-11-12T07:19:13.050Z,4.70
2022-11-12T07:26:32.488Z,4.70
2022-11-12T07:33:51.945Z,4.70
2022-11-12T07:41:14.605Z,4.70
2022-11-12T07:48:34.617Z,4.90
2022-11-12T07:55:56.244Z,5.20
2022-11-12T08:03:15.637Z,5.20
2022-11-12T08:10:35.304Z,5.30
2022-11-12T08:17:54.950Z,5.50
2022-11-12T08:25:15.521Z,5.60
2022-11-12T08:32:34.773Z,5.90
2022-11-12T08:39:54.048Z,6.10
2022-11-12T08:47:13.651Z,6.30
2022-11-12T08:54:33.234Z,6.50
2022-11-12T09:01:52.659Z,6.80
2022-11-12T09:09:11.935Z,7.10
2022-11-12T09:16:31.574Z,7.40
2022-11-12T09:23:51.043Z,7.70
2022-11-12T09:31:10.085Z,8.00
2022-11-12T09:38:30.650Z,8.40
2022-11-12T09:46:06.898Z,8.80
2022-11-12T09:53:54.035Z,9.10
2022-11-12T10:01:36.792Z,9.50
2022-11-12T10:09:09.223Z,9.90
2022-11-12T10:16:44.915Z,10.30
2022-11-12T10:24:09.672Z,10.60
2022-11-12T10:31:29.023Z,10.90
2022-11-12T10:38:53.665Z,11.20
2022-11-12T10:46:22.954Z,11.40
2022-11-12T10:53:42.870Z,11.70
2022-11-12T11:01:12.018Z,12.00
2022-11-12T11:08:53.398Z,12.20
2022-11-12T11:16:22.477Z,12.40
2022-11-12T11:23:58.029Z,12.60
2022-11-12T11:31:32.262Z,12.80
2022-11-12T11:39:02.613Z,13.00
2022-11-12T11:46:28.284Z,13.10
2022-11-12T11:54:12.562Z,13.30
2022-11-12T12:01:57.906Z,13.50
2022-11-12T12:09:52.914Z,13.70
2022-11-12T12:17:31.731Z,13.80
2022-11-12T12:24:58.753Z,14.00
2022-11-12T12:32:37.987Z,14.10
2022-11-12T12:40:10.777Z,14.40
2022-11-12T12:47:44.794Z,14.60
2022-11-12T12:55:04.694Z,14.70
2022-11-12T13:02:25.458Z,14.90
2022-11-12T13:09:44.926Z,15.00
2022-11-12T13:17:33.496Z,15.20
2022-11-12T13:25:08.511Z,15.40
2022-11-12T13:32:43.861Z,15.50
2022-11-12T13:40:04.899Z,15.70
2022-11-12T13:47:26.243Z,15.90
2022-11-12T13:54:45.667Z,16.00
2022-11-12T14:02:26.365Z,16.10
2022-11-12T14:10:09.206Z,16.30
2022-11-12T14:17:50.092Z,16.50
2022-11-12T14:25:19.876Z,16.50
2022-11-12T14:32:41.817Z,16.50
2022-11-12T14:40:01.586Z,16.50
2022-11-12T14:47:21.444Z,16.40
2022-11-12T14:54:54.716Z,16.30
2022-11-12T15:10:02.869Z,16.00
2022-11-12T15:17:34.521Z,15.80
2022-11-12T15:24:53.823Z,15.60
2022-11-12T15:32:14.174Z,15.40
2022-11-12T15:39:41.578Z,15.30
2022-11-12T15:47:03.366Z,15.00
2022-11-12T15:54:22.388Z,14.80
2022-11-12T16:01:41.945Z,14.60
2022-11-12T16:09:01.226Z,14.40
2022-11-12T16:16:20.618Z,14.20
2022-11-12T16:23:40.181Z,14.00
2022-11-12T16:30:59.872Z,13.80
2022-11-12T16:38:19.556Z,13.60
2022-11-12T16:45:41.825Z,13.40
2022-11-12T16:53:01.542Z,13.20
2022-11-12T17:00:21.526Z,13.10
2022-11-12T17:07:40.935Z,12.90
2022-11-12T17:15:00.553Z,12.80
2022-11-12T17:22:22.389Z,12.70
2022-11-12T17:29:41.802Z,12.60
2022-11-12T17:37:01.229Z,12.50
2022-11-12T17:44:21.025Z,12.50
2022-11-12T17:51:41.007Z,12.50
2022-11-12T17:59:01.403Z,12.30
2022-11-12T18:06:22.980Z,12.30
2022-11-12T18:13:42.241Z,12.10
2022-11-12T18:21:01.989Z,12.00
2022-11-12T18:28:22.129Z,11.90
2022-11-12T18:35:41.685Z,11.80
2022-11-12T18:43:01.213Z,11.70
2022-11-12T18:50:20.747Z,11.60
2022-11-12T18:57:40.142Z,11.50
2022-11-12T19:04:59.552Z,11.40
2022-11-12T19:12:18.832Z,11.40
2022-11-12T19:19:38.331Z,11.20
2022-11-12T19:26:57.817Z,11.10
2022-11-12T19:34:17.143Z,11.00
2022-11-12T19:41:36.593Z,11.10
2022-11-12T19:48:56.166Z,10.90
2022-11-12T19:56:20.802Z,10.90
2022-11-12T20:03:40.607Z,10.90
2022-11-12T20:11:00.607Z,10.80
2022-11-12T20:18:19.986Z,10.80
2022-11-12T20:25:39.002Z,10.70
2022-11-12T20:32:58.171Z,10.60
2022-11-12T20:40:17.444Z,10.50
2022-11-12T20:47:36.811Z,10.40
2022-11-12T20:54:56.151Z,10.30
2022-11-12T21:02:15.885Z,10.20
2022-11-12T21:09:35.335Z,10.10
2022-11-12T21:16:54.758Z,10.00
2022-11-12T21:24:14.204Z,9.90
2022-11-12T21:31:33.915Z,9.80
2022-11-12T21:38:53.157Z,9.70
2022-11-12T21:46:25.681Z,9.70
2022-11-12T21:53:44.910Z,9.60
2022-11-12T22:01:22.553Z,9.40
2022-11-12T22:08:42.707Z,9.30
2022-11-12T22:16:10.871Z,9.20
2022-11-12T22:23:32.913Z,9.00
2022-11-12T22:30:52.589Z,8.90
2022-11-12T22:38:11.931Z,8.80
2022-11-12T22:45:31.012Z,8.70
2022-11-12T22:52:50.485Z,8.60
2022-11-12T23:00:11.485Z,8.50
2022-11-12T23:07:30.846Z,8.50
2022-11-12T23:14:50.355Z,8.40
2022-11-12T23:22:09.251Z,8.30
2022-11-12T23:29:28.598Z,8.30
2022-11-12T23:36:47.755Z,8.20
2022-11-12T23:44:06.791Z,8.10
2022-11-12T23:51:26.268Z,8.10
2022-11-12T23:58:45.333Z,8.00
